sensor_id;sensor_type;location;lat;lon;timestamp;pressure;altitude;pressure_sealevel;temperature
61703;BMP280;47622;47.726;3.298;2024-01-25T00:02:23;100694.75;;;11.78
61703;BMP280;47622;47.726;3.298;2024-01-25T00:04:48;100687.16;;;11.71
61703;BMP280;47622;47.726;3.298;2024-01-25T00:07:14;100692.41;;;11.71
61703;BMP280;47622;47.726;3.298;2024-01-25T00:09:39;100697.38;;;11.68
61703;BMP280;47622;47.726;3.298;2024-01-25T00:12:05;100691.84;;;11.74
61703;BMP280;47622;47.726;3.298;2024-01-25T00:14:31;100695.25;;;11.75
61703;BMP280;47622;47.726;3.298;2024-01-25T00:16:56;100696.59;;;11.72
61703;BMP280;47622;47.726;3.298;2024-01-25T00:19:22;100689.75;;;11.66
61703;BMP280;47622;47.726;3.298;2024-01-25T00:21:47;100684.25;;;11.68
61703;BMP280;47622;47.726;3.298;2024-01-25T00:24:13;100685.31;;;11.72
61703;BMP280;47622;47.726;3.298;2024-01-25T00:26:39;100684.25;;;11.63
61703;BMP280;47622;47.726;3.298;2024-01-25T00:29:05;100682.41;;;11.58
61703;BMP280;47622;47.726;3.298;2024-01-25T00:31:30;100689.50;;;11.63
61703;BMP280;47622;47.726;3.298;2024-01-25T00:33:59;100674.03;;;11.56
61703;BMP280;47622;47.726;3.298;2024-01-25T00:36:26;100685.59;;;11.55
61703;BMP280;47622;47.726;3.298;2024-01-25T00:38:51;100684.28;;;11.52
61703;BMP280;47622;47.726;3.298;2024-01-25T00:41:18;100674.53;;;11.53
61703;BMP280;47622;47.726;3.298;2024-01-25T00:43:46;100671.69;;;11.54
61703;BMP280;47622;47.726;3.298;2024-01-25T00:46:12;100678.50;;;11.50
61703;BMP280;47622;47.726;3.298;2024-01-25T00:48:38;100668.50;;;11.52
61703;BMP280;47622;47.726;3.298;2024-01-25T00:51:07;100672.19;;;11.51
61703;BMP280;47622;47.726;3.298;2024-01-25T00:53:33;100670.88;;;11.54
61703;BMP280;47622;47.726;3.298;2024-01-25T00:55:59;100671.69;;;11.54
61703;BMP280;47622;47.726;3.298;2024-01-25T00:58:25;100665.84;;;11.57
61703;BMP280;47622;47.726;3.298;2024-01-25T01:00:52;100662.72;;;11.50
61703;BMP280;47622;47.726;3.298;2024-01-25T01:03:21;100659.06;;;11.46
61703;BMP280;47622;47.726;3.298;2024-01-25T01:05:46;100655.94;;;11.44
61703;BMP280;47622;47.726;3.298;2024-01-25T01:08:12;100640.19;;;11.34
61703;BMP280;47622;47.726;3.298;2024-01-25T01:10:38;100643.63;;;11.35
61703;BMP280;47622;47.726;3.298;2024-01-25T01:13:04;100635.44;;;11.31
61703;BMP280;47622;47.726;3.298;2024-01-25T01:15:29;100641.25;;;11.28
61703;BMP280;47622;47.726;3.298;2024-01-25T01:17:55;100641.25;;;11.28
61703;BMP280;47622;47.726;3.298;2024-01-25T01:20:20;100638.63;;;11.28
61703;BMP280;47622;47.726;3.298;2024-01-25T01:22:46;100636.50;;;11.30
61703;BMP280;47622;47.726;3.298;2024-01-25T01:25:11;100637.03;;;11.32
61703;BMP280;47622;47.726;3.298;2024-01-25T01:27:37;100639.13;;;11.30
61703;BMP280;47622;47.726;3.298;2024-01-25T01:30:03;100635.19;;;11.27
61703;BMP280;47622;47.726;3.298;2024-01-25T01:32:29;100630.72;;;11.28
61703;BMP280;47622;47.726;3.298;2024-01-25T01:34:54;100639.13;;;11.40
61703;BMP280;47622;47.726;3.298;2024-01-25T01:37:20;100642.53;;;11.41
61703;BMP280;47622;47.726;3.298;2024-01-25T01:39:45;100642.25;;;11.37
61703;BMP280;47622;47.726;3.298;2024-01-25T01:42:11;100633.88;;;11.40
61703;BMP280;47622;47.726;3.298;2024-01-25T01:44:36;100639.13;;;11.35
61703;BMP280;47622;47.726;3.298;2024-01-25T01:47:02;100630.47;;;11.35
61703;BMP280;47622;47.726;3.298;2024-01-25T01:49:28;100627.56;;;11.36
61703;BMP280;47622;47.726;3.298;2024-01-25T01:51:54;100614.72;;;11.30
61703;BMP280;47622;47.726;3.298;2024-01-25T01:54:20;100622.31;;;11.21
61703;BMP280;47622;47.726;3.298;2024-01-25T01:56:46;100622.88;;;11.23
61703;BMP280;47622;47.726;3.298;2024-01-25T01:59:12;100624.97;;;11.11
61703;BMP280;47622;47.726;3.298;2024-01-25T02:01:38;100631.28;;;11.15
61703;BMP280;47622;47.726;3.298;2024-01-25T02:04:04;100626.03;;;11.15
61703;BMP280;47622;47.726;3.298;2024-01-25T02:06:30;100619.72;;;11.11
61703;BMP280;47622;47.726;3.298;2024-01-25T02:08:56;100623.94;;;11.07
61703;BMP280;47622;47.726;3.298;2024-01-25T02:11:24;100622.91;;;11.03
61703;BMP280;47622;47.726;3.298;2024-01-25T02:13:50;100625.50;;;11.08
61703;BMP280;47622;47.726;3.298;2024-01-25T02:16:15;100623.41;;;11.05
61703;BMP280;47622;47.726;3.298;2024-01-25T02:18:41;100628.94;;;11.03
61703;BMP280;47622;47.726;3.298;2024-01-25T02:21:07;100634.97;;;11.09
61703;BMP280;47622;47.726;3.298;2024-01-25T02:23:33;100632.59;;;11.07
61703;BMP280;47622;47.726;3.298;2024-01-25T02:25:58;100631.56;;;11.03
61703;BMP280;47622;47.726;3.298;2024-01-25T02:28:24;100630.78;;;11.08
61703;BMP280;47622;47.726;3.298;2024-01-25T02:30:50;100634.41;;;11.17
61703;BMP280;47622;47.726;3.298;2024-01-25T02:33:17;100634.44;;;11.12
61703;BMP280;47622;47.726;3.298;2024-01-25T02:35:42;100635.47;;;11.11
61703;BMP280;47622;47.726;3.298;2024-01-25T02:38:08;100625.50;;;11.08
61703;BMP280;47622;47.726;3.298;2024-01-25T02:40:33;100626.03;;;11.10
61703;BMP280;47622;47.726;3.298;2024-01-25T02:42:59;100631.81;;;11.12
61703;BMP280;47622;47.726;3.298;2024-01-25T02:45:24;100635.75;;;11.14
61703;BMP280;47622;47.726;3.298;2024-01-25T02:47:50;100624.97;;;11.11
61703;BMP280;47622;47.726;3.298;2024-01-25T02:50:15;100617.38;;;11.09
61703;BMP280;47622;47.726;3.298;2024-01-25T02:52:41;100620.25;;;11.08
61703;BMP280;47622;47.726;3.298;2024-01-25T02:55:07;100620.50;;;11.11
61703;BMP280;47622;47.726;3.298;2024-01-25T02:57:33;100612.91;;;11.10
61703;BMP280;47622;47.726;3.298;2024-01-25T02:59:59;100610.00;;;11.11
61703;BMP280;47622;47.726;3.298;2024-01-25T03:02:25;100617.63;;;11.08
61703;BMP280;47622;47.726;3.298;2024-01-25T03:04:51;100609.75;;;11.08
61703;BMP280;47622;47.726;3.298;2024-01-25T03:07:16;100615.00;;;11.08
61703;BMP280;47622;47.726;3.298;2024-01-25T03:09:42;100614.47;;;11.11
61703;BMP280;47622;47.726;3.298;2024-01-25T03:12:07;100618.13;;;11.15
61703;BMP280;47622;47.726;3.298;2024-01-25T03:14:33;100607.91;;;11.13
61703;BMP280;47622;47.726;3.298;2024-01-25T03:16:59;100615.53;;;11.15
61703;BMP280;47622;47.726;3.298;2024-01-25T03:19:25;100613.94;;;11.14
61703;BMP280;47622;47.726;3.298;2024-01-25T03:21:54;100614.22;;;11.17
61703;BMP280;47622;47.726;3.298;2024-01-25T03:24:21;100610.28;;;11.15
61703;BMP280;47622;47.726;3.298;2024-01-25T03:26:47;100621.31;;;11.12
61703;BMP280;47622;47.726;3.298;2024-01-25T03:29:14;100623.41;;;11.10
61703;BMP280;47622;47.726;3.298;2024-01-25T03:31:39;100624.19;;;11.10
61703;BMP280;47622;47.726;3.298;2024-01-25T03:34:05;100623.94;;;11.07
61703;BMP280;47622;47.726;3.298;2024-01-25T03:36:30;100622.34;;;11.11
61703;BMP280;47622;47.726;3.298;2024-01-25T03:38:57;100625.78;;;11.11
61703;BMP280;47622;47.726;3.298;2024-01-25T03:41:22;100617.09;;;11.06
61703;BMP280;47622;47.726;3.298;2024-01-25T03:43:49;100609.00;;;11.02
61703;BMP280;47622;47.726;3.298;2024-01-25T03:46:14;100624.47;;;11.09
61703;BMP280;47622;47.726;3.298;2024-01-25T03:48:40;100615.53;;;11.05
61703;BMP280;47622;47.726;3.298;2024-01-25T03:51:05;100615.00;;;11.08
61703;BMP280;47622;47.726;3.298;2024-01-25T03:53:31;100612.91;;;11.05
61703;BMP280;47622;47.726;3.298;2024-01-25T03:55:56;100606.09;;;10.99
61703;BMP280;47622;47.726;3.298;2024-01-25T03:58:22;100603.97;;;11.01
61703;BMP280;47622;47.726;3.298;2024-01-25T04:00:47;100617.09;;;11.01
61703;BMP280;47622;47.726;3.298;2024-01-25T04:03:13;100611.31;;;11.04
61703;BMP280;47622;47.726;3.298;2024-01-25T04:05:38;100602.69;;;11.03
61703;BMP280;47622;47.726;3.298;2024-01-25T04:08:07;100616.59;;;10.99
61703;BMP280;47622;47.726;3.298;2024-01-25T04:10:33;100615.03;;;11.03
61703;BMP280;47622;47.726;3.298;2024-01-25T04:12:58;100611.34;;;10.93
61703;BMP280;47622;47.726;3.298;2024-01-25T04:15:26;100609.22;;;10.90
61703;BMP280;47622;47.726;3.298;2024-01-25T04:17:52;100604.78;;;10.91
61703;BMP280;47622;47.726;3.298;2024-01-25T04:20:18;100599.53;;;10.91
61703;BMP280;47622;47.726;3.298;2024-01-25T04:22:44;100606.63;;;10.85
61703;BMP280;47622;47.726;3.298;2024-01-25T04:25:10;100608.72;;;10.83
61703;BMP280;47622;47.726;3.298;2024-01-25T04:27:39;100606.63;;;10.85
61703;BMP280;47622;47.726;3.298;2024-01-25T04:30:06;100613.69;;;10.90
61703;BMP280;47622;47.726;3.298;2024-01-25T04:32:32;100610.56;;;10.88
61703;BMP280;47622;47.726;3.298;2024-01-25T04:34:57;100606.63;;;10.85
61703;BMP280;47622;47.726;3.298;2024-01-25T04:37:23;100617.13;;;10.85
61703;BMP280;47622;47.726;3.298;2024-01-25T04:39:48;100611.88;;;10.85
61703;BMP280;47622;47.726;3.298;2024-01-25T04:42:14;100609.25;;;10.80
61703;BMP280;47622;47.726;3.298;2024-01-25T04:44:39;100622.63;;;10.79
61703;BMP280;47622;47.726;3.298;2024-01-25T04:47:05;100625.00;;;10.70
61703;BMP280;47622;47.726;3.298;2024-01-25T04:49:30;100612.91;;;10.64
61703;BMP280;47622;47.726;3.298;2024-01-25T04:51:56;100621.81;;;10.58
61703;BMP280;47622;47.726;3.298;2024-01-25T04:54:21;100613.69;;;10.49
61703;BMP280;47622;47.726;3.298;2024-01-25T04:56:47;100623.63;;;10.47
61703;BMP280;47622;47.726;3.298;2024-01-25T04:59:12;100624.41;;;10.32
61703;BMP280;47622;47.726;3.298;2024-01-25T05:01:38;100622.28;;;10.34
61703;BMP280;47622;47.726;3.298;2024-01-25T05:04:04;100618.63;;;10.35
61703;BMP280;47622;47.726;3.298;2024-01-25T05:06:29;100616.56;;;10.38
61703;BMP280;47622;47.726;3.298;2024-01-25T05:08:55;100617.84;;;10.35
61703;BMP280;47622;47.726;3.298;2024-01-25T05:11:20;100617.06;;;10.40
61703;BMP280;47622;47.726;3.298;2024-01-25T05:13:46;100607.38;;;10.45
61703;BMP280;47622;47.726;3.298;2024-01-25T05:16:11;100599.78;;;10.44
61703;BMP280;47622;47.726;3.298;2024-01-25T05:18:37;100594.00;;;10.47
61703;BMP280;47622;47.726;3.298;2024-01-25T05:21:02;100595.56;;;10.48
61703;BMP280;47622;47.726;3.298;2024-01-25T05:23:28;100589.50;;;10.47
61703;BMP280;47622;47.726;3.298;2024-01-25T05:25:53;100597.69;;;10.46
61703;BMP280;47622;47.726;3.298;2024-01-25T05:28:19;100592.13;;;10.47
61703;BMP280;47622;47.726;3.298;2024-01-25T05:30:45;100588.75;;;10.47
61703;BMP280;47622;47.726;3.298;2024-01-25T05:33:10;100595.56;;;10.48
61703;BMP280;47622;47.726;3.298;2024-01-25T05:35:36;100588.22;;;10.50
61703;BMP280;47622;47.726;3.298;2024-01-25T05:38:01;100586.66;;;10.49
61703;BMP280;47622;47.726;3.298;2024-01-25T05:40:27;100590.34;;;10.53
61703;BMP280;47622;47.726;3.298;2024-01-25T05:42:52;100595.31;;;10.49
61703;BMP280;47622;47.726;3.298;2024-01-25T05:45:18;100592.69;;;10.49
61703;BMP280;47622;47.726;3.298;2024-01-25T05:47:46;100587.69;;;10.48
61703;BMP280;47622;47.726;3.298;2024-01-25T05:50:12;100581.16;;;10.45
61703;BMP280;47622;47.726;3.298;2024-01-25T05:52:37;100584.56;;;10.46
61703;BMP280;47622;47.726;3.298;2024-01-25T05:55:04;100587.97;;;10.46
61703;BMP280;47622;47.726;3.298;2024-01-25T05:57:30;100593.47;;;10.50
61703;BMP280;47622;47.726;3.298;2024-01-25T05:59:55;100592.97;;;10.43
61703;BMP280;47622;47.726;3.298;2024-01-25T06:02:21;100589.50;;;10.47
61703;BMP280;47622;47.726;3.298;2024-01-25T06:04:46;100589.31;;;10.54
61703;BMP280;47622;47.726;3.298;2024-01-25T06:07:12;100595.56;;;10.53
61703;BMP280;47622;47.726;3.298;2024-01-25T06:09:37;100593.47;;;10.50
61703;BMP280;47622;47.726;3.298;2024-01-25T06:12:04;100595.06;;;10.51
61703;BMP280;47622;47.726;3.298;2024-01-25T06:14:30;100595.56;;;10.48
61703;BMP280;47622;47.726;3.298;2024-01-25T06:16:55;100599.50;;;10.50
61703;BMP280;47622;47.726;3.298;2024-01-25T06:19:21;100595.06;;;10.51
61703;BMP280;47622;47.726;3.298;2024-01-25T06:21:47;100594.56;;;10.54
61703;BMP280;47622;47.726;3.298;2024-01-25T06:24:12;100602.41;;;10.49
61703;BMP280;47622;47.726;3.298;2024-01-25T06:26:38;100594.53;;;10.44
61703;BMP280;47622;47.726;3.298;2024-01-25T06:29:04;100595.03;;;10.41
61703;BMP280;47622;47.726;3.298;2024-01-25T06:31:30;100586.91;;;10.42
61703;BMP280;47622;47.726;3.298;2024-01-25T06:33:55;100586.13;;;10.42
61703;BMP280;47622;47.726;3.298;2024-01-25T06:36:24;100599.47;;;10.40
61703;BMP280;47622;47.726;3.298;2024-01-25T06:38:49;100603.94;;;10.40
61703;BMP280;47622;47.726;3.298;2024-01-25T06:41:15;100598.22;;;10.38
61703;BMP280;47622;47.726;3.298;2024-01-25T06:43:41;100592.41;;;10.35
61703;BMP280;47622;47.726;3.298;2024-01-25T06:46:07;100595.81;;;10.36
61703;BMP280;47622;47.726;3.298;2024-01-25T06:48:33;100595.28;;;10.34
61703;BMP280;47622;47.726;3.298;2024-01-25T06:50:58;100593.97;;;10.36
61703;BMP280;47622;47.726;3.298;2024-01-25T06:53:24;100587.16;;;10.35
61703;BMP280;47622;47.726;3.298;2024-01-25T06:55:49;100590.84;;;10.40
61703;BMP280;47622;47.726;3.298;2024-01-25T06:58:15;100588.72;;;10.42
61703;BMP280;47622;47.726;3.298;2024-01-25T07:00:40;100590.34;;;10.38
61703;BMP280;47622;47.726;3.298;2024-01-25T07:03:08;100590.34;;;10.38
61703;BMP280;47622;47.726;3.298;2024-01-25T07:05:34;100587.69;;;10.32
61703;BMP280;47622;47.726;3.298;2024-01-25T07:08:03;100589.25;;;10.33
61703;BMP280;47622;47.726;3.298;2024-01-25T07:10:29;100594.50;;;10.33
61703;BMP280;47622;47.726;3.298;2024-01-25T07:12:54;100593.94;;;10.31
61703;BMP280;47622;47.726;3.298;2024-01-25T07:15:20;100597.63;;;10.30
61703;BMP280;47622;47.726;3.298;2024-01-25T07:17:46;100602.88;;;10.30
61703;BMP280;47622;47.726;3.298;2024-01-25T07:20:12;100602.38;;;10.28
61703;BMP280;47622;47.726;3.298;2024-01-25T07:22:38;100596.56;;;10.31
61703;BMP280;47622;47.726;3.298;2024-01-25T07:25:04;100589.75;;;10.30
61703;BMP280;47622;47.726;3.298;2024-01-25T07:27:30;100594.25;;;10.30
61703;BMP280;47622;47.726;3.298;2024-01-25T07:29:55;100584.00;;;10.28
61703;BMP280;47622;47.726;3.298;2024-01-25T07:32:21;100585.84;;;10.33
61703;BMP280;47622;47.726;3.298;2024-01-25T07:34:49;100589.25;;;10.33
61703;BMP280;47622;47.726;3.298;2024-01-25T07:37:15;100584.00;;;10.33
61703;BMP280;47622;47.726;3.298;2024-01-25T07:39:41;100568.28;;;10.33
61703;BMP280;47622;47.726;3.298;2024-01-25T07:42:06;100573.53;;;10.33
61703;BMP280;47622;47.726;3.298;2024-01-25T07:44:32;100566.97;;;10.36
61703;BMP280;47622;47.726;3.298;2024-01-25T07:46:58;100563.03;;;10.39
61703;BMP280;47622;47.726;3.298;2024-01-25T07:49:23;100564.63;;;10.45
61703;BMP280;47622;47.726;3.298;2024-01-25T07:51:49;100571.44;;;10.46
61703;BMP280;47622;47.726;3.298;2024-01-25T07:54:14;100554.41;;;10.48
61703;BMP280;47622;47.726;3.298;2024-01-25T07:56:40;100560.16;;;10.50
61703;BMP280;47622;47.726;3.298;2024-01-25T07:59:05;100559.66;;;10.53
61703;BMP280;47622;47.726;3.298;2024-01-25T08:01:31;100565.69;;;10.54
61703;BMP280;47622;47.726;3.298;2024-01-25T08:03:56;100564.66;;;10.55
61703;BMP280;47622;47.726;3.298;2024-01-25T08:06:22;100557.28;;;10.57
61703;BMP280;47622;47.726;3.298;2024-01-25T08:08:48;100563.31;;;10.57
61703;BMP280;47622;47.726;3.298;2024-01-25T08:11:13;100570.94;;;10.59
61703;BMP280;47622;47.726;3.298;2024-01-25T08:13:43;100565.69;;;10.59
61703;BMP280;47622;47.726;3.298;2024-01-25T08:16:10;100569.34;;;10.58
61703;BMP280;47622;47.726;3.298;2024-01-25T08:18:39;100576.97;;;10.64
61703;BMP280;47622;47.726;3.298;2024-01-25T08:21:05;100570.13;;;10.63
61703;BMP280;47622;47.726;3.298;2024-01-25T08:23:30;100568.06;;;10.71
61703;BMP280;47622;47.726;3.298;2024-01-25T08:25:56;100583.00;;;10.85
61703;BMP280;47622;47.726;3.298;2024-01-25T08:28:21;100585.88;;;10.84
61703;BMP280;47622;47.726;3.298;2024-01-25T08:30:47;100590.63;;;10.87
61703;BMP280;47622;47.726;3.298;2024-01-25T08:33:13;100597.69;;;10.91
61703;BMP280;47622;47.726;3.298;2024-01-25T08:35:39;100591.41;;;11.03
61703;BMP280;47622;47.726;3.298;2024-01-25T08:38:06;100592.97;;;11.09
61703;BMP280;47622;47.726;3.298;2024-01-25T08:40:32;100598.97;;;11.14
61703;BMP280;47622;47.726;3.298;2024-01-25T08:42:58;100603.44;;;11.14
61703;BMP280;47622;47.726;3.298;2024-01-25T08:45:23;100601.09;;;11.22
61703;BMP280;47622;47.726;3.298;2024-01-25T08:47:49;100593.19;;;11.22
61703;BMP280;47622;47.726;3.298;2024-01-25T08:50:16;100594.25;;;11.26
61703;BMP280;47622;47.726;3.298;2024-01-25T08:52:42;100592.94;;;11.24
61703;BMP280;47622;47.726;3.298;2024-01-25T08:55:07;100604.22;;;11.24
61703;BMP280;47622;47.726;3.298;2024-01-25T08:57:35;100601.31;;;11.31
61703;BMP280;47622;47.726;3.298;2024-01-25T09:00:01;100597.38;;;11.39
61703;BMP280;47622;47.726;3.298;2024-01-25T09:02:27;100603.41;;;11.39
61703;BMP280;47622;47.726;3.298;2024-01-25T09:04:55;100588.66;;;11.38
61703;BMP280;47622;47.726;3.298;2024-01-25T09:07:21;100607.59;;;11.40
61703;BMP280;47622;47.726;3.298;2024-01-25T09:09:47;100599.69;;;11.50
61703;BMP280;47622;47.726;3.298;2024-01-25T09:12:13;100600.19;;;11.52
61703;BMP280;47622;47.726;3.298;2024-01-25T09:14:40;100612.81;;;11.50
61703;BMP280;47622;47.726;3.298;2024-01-25T09:17:07;100611.25;;;11.54
61703;BMP280;47622;47.726;3.298;2024-01-25T09:19:33;100604.66;;;11.57
61703;BMP280;47622;47.726;3.298;2024-01-25T09:21:58;100605.16;;;11.59
61703;BMP280;47622;47.726;3.298;2024-01-25T09:24:27;100606.47;;;11.67
61703;BMP280;47622;47.726;3.298;2024-01-25T09:26:54;100601.72;;;11.69
61703;BMP280;47622;47.726;3.298;2024-01-25T09:29:20;100614.84;;;11.79
61703;BMP280;47622;47.726;3.298;2024-01-25T09:31:46;100606.91;;;11.84
61703;BMP280;47622;47.726;3.298;2024-01-25T09:34:11;100598.75;;;11.80
61703;BMP280;47622;47.726;3.298;2024-01-25T09:36:37;100604.00;;;11.85
61703;BMP280;47622;47.726;3.298;2024-01-25T09:39:02;100604.25;;;11.94
61703;BMP280;47622;47.726;3.298;2024-01-25T09:41:29;100613.38;;;12.02
61703;BMP280;47622;47.726;3.298;2024-01-25T09:43:55;100610.50;;;12.03
61703;BMP280;47622;47.726;3.298;2024-01-25T09:46:21;100623.38;;;12.05
61703;BMP280;47622;47.726;3.298;2024-01-25T09:48:48;100627.34;;;12.02
61703;BMP280;47622;47.726;3.298;2024-01-25T09:51:14;100622.34;;;12.01
61703;BMP280;47622;47.726;3.298;2024-01-25T09:53:40;100616.34;;;11.90
61703;BMP280;47622;47.726;3.298;2024-01-25T09:56:11;100623.41;;;11.95
61703;BMP280;47622;47.726;3.298;2024-01-25T09:58:42;100627.06;;;12.04
61703;BMP280;47622;47.726;3.298;2024-01-25T10:01:11;100623.66;;;12.03
61703;BMP280;47622;47.726;3.298;2024-01-25T10:03:47;100622.59;;;12.04
61703;BMP280;47622;47.726;3.298;2024-01-25T10:06:13;100623.84;;;12.12
61703;BMP280;47622;47.726;3.298;2024-01-25T10:08:39;100620.19;;;12.13
61703;BMP280;47622;47.726;3.298;2024-01-25T10:11:05;100630.94;;;12.16
61703;BMP280;47622;47.726;3.298;2024-01-25T10:13:31;100639.13;;;12.15
61703;BMP280;47622;47.726;3.298;2024-01-25T10:15:57;100625.19;;;12.09
61703;BMP280;47622;47.726;3.298;2024-01-25T10:18:25;100623.66;;;12.08
61703;BMP280;47622;47.726;3.298;2024-01-25T10:20:53;100631.75;;;12.12
61703;BMP280;47622;47.726;3.298;2024-01-25T10:23:18;100629.88;;;12.23
61703;BMP280;47622;47.726;3.298;2024-01-25T10:25:44;100621.94;;;12.28
61703;BMP280;47622;47.726;3.298;2024-01-25T10:28:10;100633.25;;;12.28
61703;BMP280;47622;47.726;3.298;2024-01-25T10:30:37;100632.69;;;12.31
61703;BMP280;47622;47.726;3.298;2024-01-25T10:33:04;100629.78;;;12.33
61703;BMP280;47622;47.726;3.298;2024-01-25T10:35:31;100619.22;;;12.43
61703;BMP280;47622;47.726;3.298;2024-01-25T10:37:57;100615.97;;;12.51
61703;BMP280;47622;47.726;3.298;2024-01-25T10:40:23;100616.50;;;12.53
61703;BMP280;47622;47.726;3.298;2024-01-25T10:42:49;100610.16;;;12.54
61703;BMP280;47622;47.726;3.298;2024-01-25T10:45:14;100614.06;;;12.62
61703;BMP280;47622;47.726;3.298;2024-01-25T10:47:40;100613.81;;;12.63
61703;BMP280;47622;47.726;3.298;2024-01-25T10:50:09;100604.00;;;12.69
61703;BMP280;47622;47.726;3.298;2024-01-25T10:52:36;100609.44;;;12.83
61703;BMP280;47622;47.726;3.298;2024-01-25T10:55:03;100610.22;;;12.83
61703;BMP280;47622;47.726;3.298;2024-01-25T10:57:42;100612.84;;;12.83
61703;BMP280;47622;47.726;3.298;2024-01-25T11:00:15;100606.22;;;12.86
61703;BMP280;47622;47.726;3.298;2024-01-25T11:02:42;100610.47;;;12.82
61703;BMP280;47622;47.726;3.298;2024-01-25T11:05:15;100607.25;;;12.90
61703;BMP280;47622;47.726;3.298;2024-01-25T11:07:50;100600.41;;;12.89
61703;BMP280;47622;47.726;3.298;2024-01-25T11:10:23;100591.00;;;12.83
61703;BMP280;47622;47.726;3.298;2024-01-25T11:13:00;100582.38;;;12.77
61703;BMP280;47622;47.726;3.298;2024-01-25T11:15:33;100583.69;;;12.74
61703;BMP280;47622;47.726;3.298;2024-01-25T11:18:04;100582.38;;;12.77
61703;BMP280;47622;47.726;3.298;2024-01-25T11:20:34;100587.88;;;12.75
61703;BMP280;47622;47.726;3.298;2024-01-25T11:23:06;100584.81;;;12.68
61703;BMP280;47622;47.726;3.298;2024-01-25T11:25:35;100576.84;;;12.73
61703;BMP280;47622;47.726;3.298;2024-01-25T11:28:02;100573.03;;;12.61
61703;BMP280;47622;47.726;3.298;2024-01-25T11:30:30;100579.84;;;12.62
61703;BMP280;47622;47.726;3.298;2024-01-25T11:32:55;100567.53;;;12.57
61703;BMP280;47622;47.726;3.298;2024-01-25T11:35:21;100558.47;;;12.68
61703;BMP280;47622;47.726;3.298;2024-01-25T11:37:48;100557.13;;;12.71
61703;BMP280;47622;47.726;3.298;2024-01-25T11:40:15;100555.25;;;12.76
61703;BMP280;47622;47.726;3.298;2024-01-25T11:42:42;100547.41;;;12.71
61703;BMP280;47622;47.726;3.298;2024-01-25T11:45:10;100544.97;;;12.75
61703;BMP280;47622;47.726;3.298;2024-01-25T11:47:37;100540.88;;;12.64
61703;BMP280;47622;47.726;3.298;2024-01-25T11:50:03;100547.50;;;12.61
61703;BMP280;47622;47.726;3.298;2024-01-25T11:52:29;100553.28;;;12.58
61703;BMP280;47622;47.726;3.298;2024-01-25T11:54:58;100544.59;;;12.63
61703;BMP280;47622;47.726;3.298;2024-01-25T11:57:23;100544.47;;;12.73
61703;BMP280;47622;47.726;3.298;2024-01-25T11:59:49;100540.69;;;12.84
61703;BMP280;47622;47.726;3.298;2024-01-25T12:02:15;100538.44;;;12.72
61703;BMP280;47622;47.726;3.298;2024-01-25T12:04:41;100521.22;;;12.56
61703;BMP280;47622;47.726;3.298;2024-01-25T12:07:07;100530.69;;;12.57
61703;BMP280;47622;47.726;3.298;2024-01-25T12:09:33;100529.03;;;12.66
61703;BMP280;47622;47.726;3.298;2024-01-25T12:12:00;100522.75;;;12.62
61703;BMP280;47622;47.726;3.298;2024-01-25T12:14:27;100522.78;;;12.57
61703;BMP280;47622;47.726;3.298;2024-01-25T12:16:56;100515.91;;;12.61
61703;BMP280;47622;47.726;3.298;2024-01-25T12:19:22;100513.06;;;12.53
61703;BMP280;47622;47.726;3.298;2024-01-25T12:21:48;100511.28;;;12.48
61703;BMP280;47622;47.726;3.298;2024-01-25T12:24:13;100507.09;;;12.47
61703;BMP280;47622;47.726;3.298;2024-01-25T12:26:41;100499.81;;;12.34
61703;BMP280;47622;47.726;3.298;2024-01-25T12:29:06;100501.41;;;12.35
61703;BMP280;47622;47.726;3.298;2024-01-25T12:31:33;100500.50;;;12.44
61703;BMP280;47622;47.726;3.298;2024-01-25T12:34:00;100498.41;;;12.46
61703;BMP280;47622;47.726;3.298;2024-01-25T12:36:26;100491.25;;;12.52
61703;BMP280;47622;47.726;3.298;2024-01-25T12:38:51;100488.59;;;12.57
61703;BMP280;47622;47.726;3.298;2024-01-25T12:41:17;100477.03;;;12.53
61703;BMP280;47622;47.726;3.298;2024-01-25T12:43:43;100465.97;;;12.56
61703;BMP280;47622;47.726;3.298;2024-01-25T12:46:08;100454.31;;;12.62
61703;BMP280;47622;47.726;3.298;2024-01-25T12:48:34;100440.88;;;12.88
61703;BMP280;47622;47.726;3.298;2024-01-25T12:51:00;100418.41;;;13.33
61703;BMP280;47622;47.726;3.298;2024-01-25T12:53:27;100423.38;;;13.72
61703;BMP280;47622;47.726;3.298;2024-01-25T12:55:52;100418.09;;;14.04
61703;BMP280;47622;47.726;3.298;2024-01-25T12:58:18;100414.78;;;14.26
61703;BMP280;47622;47.726;3.298;2024-01-25T13:00:43;100415.38;;;14.37
61703;BMP280;47622;47.726;3.298;2024-01-25T13:03:11;100419.94;;;14.45
61703;BMP280;47622;47.726;3.298;2024-01-25T13:05:36;100402.56;;;14.44
61703;BMP280;47622;47.726;3.298;2024-01-25T13:08:04;100390.34;;;14.48
61703;BMP280;47622;47.726;3.298;2024-01-25T13:10:30;100390.34;;;14.48
61703;BMP280;47622;47.726;3.298;2024-01-25T13:12:57;100390.41;;;14.57
61703;BMP280;47622;47.726;3.298;2024-01-25T13:15:23;100381.63;;;14.61
61703;BMP280;47622;47.726;3.298;2024-01-25T13:17:48;100380.63;;;14.71
61703;BMP280;47622;47.726;3.298;2024-01-25T13:20:14;100389.84;;;14.74
61703;BMP280;47622;47.726;3.298;2024-01-25T13:22:40;100390.63;;;14.60
61703;BMP280;47622;47.726;3.298;2024-01-25T13:25:05;100387.09;;;14.51
61703;BMP280;47622;47.726;3.298;2024-01-25T13:27:31;100381.81;;;14.51
61703;BMP280;47622;47.726;3.298;2024-01-25T13:29:56;100381.66;;;14.48
61703;BMP280;47622;47.726;3.298;2024-01-25T13:32:22;100385.53;;;14.50
61703;BMP280;47622;47.726;3.298;2024-01-25T13:34:49;100388.38;;;14.54
61703;BMP280;47622;47.726;3.298;2024-01-25T13:37:14;100390.28;;;14.26
61703;BMP280;47622;47.726;3.298;2024-01-25T13:39:40;100373.44;;;14.22
61703;BMP280;47622;47.726;3.298;2024-01-25T13:42:05;100379.47;;;14.09
61703;BMP280;47622;47.726;3.298;2024-01-25T13:44:31;100372.25;;;14.00
61703;BMP280;47622;47.726;3.298;2024-01-25T13:46:56;100362.34;;;13.92
61703;BMP280;47622;47.726;3.298;2024-01-25T13:49:22;100360.72;;;13.83
61703;BMP280;47622;47.726;3.298;2024-01-25T13:51:48;100356.03;;;13.93